sensor_id;sensor_type;location;lat;lon;timestamp;P1;durP1;ratioP1;P2;durP2;ratioP2
10059;SDS011;5069;49.306;8.636;2022-09-03T00:02:39;2.50;;;1.10;;
10059;SDS011;5069;49.306;8.636;2022-09-03T00:05:55;3.07;;;1.23;;
10059;SDS011;5069;49.306;8.636;2022-09-03T00:09:02;1.60;;;1.30;;
10059;SDS011;5069;49.306;8.636;2022-09-03T00:12:27;2.90;;;1.10;;
10059;SDS011;5069;49.306;8.636;2022-09-03T00:15:32;3.90;;;1.27;;
10059;SDS011;5069;49.306;8.636;2022-09-03T00:18:40;1.93;;;1.20;;
10059;SDS011;5069;49.306;8.636;2022-09-03T00:21:50;4.57;;;1.20;;
10059;SDS011;5069;49.306;8.636;2022-09-03T00:25:01;4.97;;;1.20;;
10059;SDS011;5069;49.306;8.636;2022-09-03T00:28:08;2.17;;;1.20;;
10059;SDS011;5069;49.306;8.636;2022-09-03T00:31:33;4.47;;;1.30;;
10059;SDS011;5069;49.306;8.636;2022-09-03T00:34:40;3.43;;;2.00;;
10059;SDS011;5069;49.306;8.636;2022-09-03T00:37:45;3.03;;;1.27;;
10059;SDS011;5069;49.306;8.636;2022-09-03T00:41:01;1.53;;;0.93;;
10059;SDS011;5069;49.306;8.636;2022-09-03T00:44:13;2.50;;;1.30;;
10059;SDS011;5069;49.306;8.636;2022-09-03T00:51:11;4.53;;;1.40;;
10059;SDS011;5069;49.306;8.636;2022-09-03T01:01:44;1.83;;;1.00;;
10059;SDS011;5069;49.306;8.636;2022-09-03T01:05:10;1.37;;;1.10;;
10059;SDS011;5069;49.306;8.636;2022-09-03T01:08:15;2.50;;;1.10;;
10059;SDS011;5069;49.306;8.636;2022-09-03T01:11:35;3.40;;;1.20;;
10059;SDS011;5069;49.306;8.636;2022-09-03T01:15:19;3.53;;;1.10;;
10059;SDS011;5069;49.306;8.636;2022-09-03T01:21:41;2.30;;;1.13;;
10059;SDS011;5069;49.306;8.636;2022-09-03T01:25:03;1.53;;;1.20;;
10059;SDS011;5069;49.306;8.636;2022-09-03T01:31:57;3.20;;;1.33;;
10059;SDS011;5069;49.306;8.636;2022-09-03T01:38:40;2.23;;;1.13;;
10059;SDS011;5069;49.306;8.636;2022-09-03T01:45:30;1.33;;;1.00;;
10059;SDS011;5069;49.306;8.636;2022-09-03T01:48:57;2.53;;;1.10;;
10059;SDS011;5069;49.306;8.636;2022-09-03T01:52:12;1.60;;;1.30;;
10059;SDS011;5069;49.306;8.636;2022-09-03T01:55:32;1.30;;;1.10;;
10059;SDS011;5069;49.306;8.636;2022-09-03T01:58:55;3.07;;;1.20;;
10059;SDS011;5069;49.306;8.636;2022-09-03T02:02:12;2.93;;;1.20;;
10059;SDS011;5069;49.306;8.636;2022-09-03T02:05:24;1.80;;;1.23;;
10059;SDS011;5069;49.306;8.636;2022-09-03T02:08:27;5.47;;;1.37;;
10059;SDS011;5069;49.306;8.636;2022-09-03T02:11:29;1.40;;;1.10;;
10059;SDS011;5069;49.306;8.636;2022-09-03T02:14:30;7.63;;;1.40;;
10059;SDS011;5069;49.306;8.636;2022-09-03T02:17:32;4.60;;;1.30;;
10059;SDS011;5069;49.306;8.636;2022-09-03T02:20:35;3.87;;;1.30;;
10059;SDS011;5069;49.306;8.636;2022-09-03T02:23:39;3.30;;;1.20;;
10059;SDS011;5069;49.306;8.636;2022-09-03T02:26:42;1.73;;;1.03;;
10059;SDS011;5069;49.306;8.636;2022-09-03T02:29:43;2.00;;;1.20;;
10059;SDS011;5069;49.306;8.636;2022-09-03T02:32:46;2.03;;;1.10;;
10059;SDS011;5069;49.306;8.636;2022-09-03T02:35:47;2.50;;;1.23;;
10059;SDS011;5069;49.306;8.636;2022-09-03T02:38:49;1.27;;;1.00;;
10059;SDS011;5069;49.306;8.636;2022-09-03T02:41:53;2.37;;;1.10;;
10059;SDS011;5069;49.306;8.636;2022-09-03T02:44:56;1.27;;;1.10;;
10059;SDS011;5069;49.306;8.636;2022-09-03T02:48:03;1.30;;;1.10;;
10059;SDS011;5069;49.306;8.636;2022-09-03T02:51:05;3.23;;;1.30;;
10059;SDS011;5069;49.306;8.636;2022-09-03T02:54:14;1.63;;;1.40;;
10059;SDS011;5069;49.306;8.636;2022-09-03T02:57:21;3.17;;;1.17;;
10059;SDS011;5069;49.306;8.636;2022-09-03T03:00:27;1.20;;;1.10;;
10059;SDS011;5069;49.306;8.636;2022-09-03T03:03:29;1.40;;;1.30;;
10059;SDS011;5069;49.306;8.636;2022-09-03T03:06:31;2.63;;;1.07;;
10059;SDS011;5069;49.306;8.636;2022-09-03T03:09:33;2.83;;;1.10;;
10059;SDS011;5069;49.306;8.636;2022-09-03T03:12:34;2.50;;;1.10;;
10059;SDS011;5069;49.306;8.636;2022-09-03T03:15:36;1.67;;;1.20;;
10059;SDS011;5069;49.306;8.636;2022-09-03T03:18:38;1.33;;;1.20;;
10059;SDS011;5069;49.306;8.636;2022-09-03T03:21:39;1.47;;;1.07;;
10059;SDS011;5069;49.306;8.636;2022-09-03T03:24:41;1.30;;;1.20;;
10059;SDS011;5069;49.306;8.636;2022-09-03T03:27:42;1.90;;;1.33;;
10059;SDS011;5069;49.306;8.636;2022-09-03T03:30:44;1.87;;;1.13;;
10059;SDS011;5069;49.306;8.636;2022-09-03T03:33:51;2.87;;;1.27;;
10059;SDS011;5069;49.306;8.636;2022-09-03T03:36:54;1.43;;;1.20;;
10059;SDS011;5069;49.306;8.636;2022-09-03T03:39:56;1.20;;;1.10;;
10059;SDS011;5069;49.306;8.636;2022-09-03T03:42:58;1.87;;;1.10;;
10059;SDS011;5069;49.306;8.636;2022-09-03T03:45:59;6.00;;;1.10;;
10059;SDS011;5069;49.306;8.636;2022-09-03T03:49:01;1.57;;;1.23;;
10059;SDS011;5069;49.306;8.636;2022-09-03T03:52:03;4.37;;;1.10;;
10059;SDS011;5069;49.306;8.636;2022-09-03T03:55:04;1.87;;;1.33;;
10059;SDS011;5069;49.306;8.636;2022-09-03T03:58:06;2.30;;;1.13;;
10059;SDS011;5069;49.306;8.636;2022-09-03T04:01:09;2.33;;;1.20;;
10059;SDS011;5069;49.306;8.636;2022-09-03T04:04:16;1.37;;;1.27;;
10059;SDS011;5069;49.306;8.636;2022-09-03T04:07:17;2.00;;;1.30;;
10059;SDS011;5069;49.306;8.636;2022-09-03T04:10:19;3.43;;;1.10;;
10059;SDS011;5069;49.306;8.636;2022-09-03T04:13:20;1.40;;;1.10;;
10059;SDS011;5069;49.306;8.636;2022-09-03T04:16:23;1.83;;;1.30;;
10059;SDS011;5069;49.306;8.636;2022-09-03T04:19:26;4.37;;;1.30;;
10059;SDS011;5069;49.306;8.636;2022-09-03T04:22:29;2.07;;;1.00;;
10059;SDS011;5069;49.306;8.636;2022-09-03T04:25:31;4.67;;;1.33;;
10059;SDS011;5069;49.306;8.636;2022-09-03T04:28:32;3.03;;;1.23;;
10059;SDS011;5069;49.306;8.636;2022-09-03T04:31:35;2.17;;;1.20;;
10059;SDS011;5069;49.306;8.636;2022-09-03T04:34:38;1.40;;;1.30;;
10059;SDS011;5069;49.306;8.636;2022-09-03T04:37:39;3.20;;;1.30;;
10059;SDS011;5069;49.306;8.636;2022-09-03T04:40:40;4.50;;;1.50;;
10059;SDS011;5069;49.306;8.636;2022-09-03T04:43:42;1.47;;;1.30;;
10059;SDS011;5069;49.306;8.636;2022-09-03T04:46:46;2.13;;;1.53;;
10059;SDS011;5069;49.306;8.636;2022-09-03T04:49:48;5.00;;;1.80;;
10059;SDS011;5069;49.306;8.636;2022-09-03T04:52:49;6.93;;;1.77;;
10059;SDS011;5069;49.306;8.636;2022-09-03T04:55:51;1.33;;;1.23;;
10059;SDS011;5069;49.306;8.636;2022-09-03T04:58:56;3.13;;;1.60;;
10059;SDS011;5069;49.306;8.636;2022-09-03T05:02:02;2.53;;;1.50;;
10059;SDS011;5069;49.306;8.636;2022-09-03T05:05:03;3.13;;;1.50;;
10059;SDS011;5069;49.306;8.636;2022-09-03T05:08:05;2.13;;;1.40;;
10059;SDS011;5069;49.306;8.636;2022-09-03T05:11:07;4.20;;;1.60;;
10059;SDS011;5069;49.306;8.636;2022-09-03T05:14:08;4.07;;;1.50;;
10059;SDS011;5069;49.306;8.636;2022-09-03T05:17:12;4.20;;;1.50;;
10059;SDS011;5069;49.306;8.636;2022-09-03T05:20:14;3.33;;;1.63;;
10059;SDS011;5069;49.306;8.636;2022-09-03T05:23:15;1.93;;;1.40;;
10059;SDS011;5069;49.306;8.636;2022-09-03T05:26:21;1.80;;;1.33;;
10059;SDS011;5069;49.306;8.636;2022-09-03T05:29:27;2.50;;;1.30;;
10059;SDS011;5069;49.306;8.636;2022-09-03T05:32:29;1.60;;;1.40;;
10059;SDS011;5069;49.306;8.636;2022-09-03T05:35:31;1.43;;;1.33;;
10059;SDS011;5069;49.306;8.636;2022-09-03T05:38:32;3.20;;;1.60;;
10059;SDS011;5069;49.306;8.636;2022-09-03T05:41:34;1.57;;;1.30;;
10059;SDS011;5069;49.306;8.636;2022-09-03T05:44:35;1.50;;;1.40;;
10059;SDS011;5069;49.306;8.636;2022-09-03T05:47:38;3.43;;;1.47;;
10059;SDS011;5069;49.306;8.636;2022-09-03T05:50:40;2.83;;;1.30;;
10059;SDS011;5069;49.306;8.636;2022-09-03T05:53:42;2.80;;;1.40;;
10059;SDS011;5069;49.306;8.636;2022-09-03T05:56:45;2.80;;;1.83;;
10059;SDS011;5069;49.306;8.636;2022-09-03T05:59:46;1.40;;;1.30;;
10059;SDS011;5069;49.306;8.636;2022-09-03T06:02:51;1.33;;;1.20;;
10059;SDS011;5069;49.306;8.636;2022-09-03T06:05:53;1.60;;;1.40;;
10059;SDS011;5069;49.306;8.636;2022-09-03T06:08:55;2.33;;;1.47;;
10059;SDS011;5069;49.306;8.636;2022-09-03T06:11:59;3.50;;;1.60;;
10059;SDS011;5069;49.306;8.636;2022-09-03T06:15:04;2.77;;;1.70;;
10059;SDS011;5069;49.306;8.636;2022-09-03T06:18:06;2.30;;;1.50;;
10059;SDS011;5069;49.306;8.636;2022-09-03T06:21:07;5.67;;;1.90;;
10059;SDS011;5069;49.306;8.636;2022-09-03T06:24:09;2.50;;;1.53;;
10059;SDS011;5069;49.306;8.636;2022-09-03T06:27:28;2.80;;;2.20;;
10059;SDS011;5069;49.306;8.636;2022-09-03T06:30:29;3.40;;;1.60;;
10059;SDS011;5069;49.306;8.636;2022-09-03T06:33:32;3.00;;;2.00;;
10059;SDS011;5069;49.306;8.636;2022-09-03T06:36:35;3.67;;;1.90;;
10059;SDS011;5069;49.306;8.636;2022-09-03T06:39:36;4.40;;;2.43;;
10059;SDS011;5069;49.306;8.636;2022-09-03T06:42:39;5.47;;;2.20;;
10059;SDS011;5069;49.306;8.636;2022-09-03T06:45:55;5.13;;;2.20;;
10059;SDS011;5069;49.306;8.636;2022-09-03T06:48:58;3.57;;;1.90;;
10059;SDS011;5069;49.306;8.636;2022-09-03T06:52:00;2.80;;;2.00;;
10059;SDS011;5069;49.306;8.636;2022-09-03T06:55:02;5.20;;;2.00;;
10059;SDS011;5069;49.306;8.636;2022-09-03T06:58:03;3.90;;;1.80;;
10059;SDS011;5069;49.306;8.636;2022-09-03T07:01:06;4.20;;;2.20;;
10059;SDS011;5069;49.306;8.636;2022-09-03T07:04:09;1.77;;;1.60;;
10059;SDS011;5069;49.306;8.636;2022-09-03T07:07:11;2.23;;;1.97;;
10059;SDS011;5069;49.306;8.636;2022-09-03T07:10:14;4.10;;;2.20;;
10059;SDS011;5069;49.306;8.636;2022-09-03T07:13:16;3.70;;;2.03;;
10059;SDS011;5069;49.306;8.636;2022-09-03T07:16:20;3.40;;;1.93;;
10059;SDS011;5069;49.306;8.636;2022-09-03T07:19:25;2.17;;;1.80;;
10059;SDS011;5069;49.306;8.636;2022-09-03T07:22:27;7.40;;;2.00;;
10059;SDS011;5069;49.306;8.636;2022-09-03T07:25:32;2.87;;;2.20;;
10059;SDS011;5069;49.306;8.636;2022-09-03T07:28:36;3.87;;;1.93;;
10059;SDS011;5069;49.306;8.636;2022-09-03T07:31:40;2.67;;;1.90;;
10059;SDS011;5069;49.306;8.636;2022-09-03T07:34:43;4.33;;;2.27;;
10059;SDS011;5069;49.306;8.636;2022-09-03T07:37:44;2.37;;;2.17;;
10059;SDS011;5069;49.306;8.636;2022-09-03T07:40:46;3.13;;;1.90;;
10059;SDS011;5069;49.306;8.636;2022-09-03T07:43:47;3.93;;;2.10;;
10059;SDS011;5069;49.306;8.636;2022-09-03T07:46:49;4.37;;;2.10;;
10059;SDS011;5069;49.306;8.636;2022-09-03T07:49:51;3.03;;;2.37;;
10059;SDS011;5069;49.306;8.636;2022-09-03T07:52:56;5.83;;;2.53;;
10059;SDS011;5069;49.306;8.636;2022-09-03T07:56:02;4.93;;;2.70;;
10059;SDS011;5069;49.306;8.636;2022-09-03T07:59:05;3.60;;;2.00;;
10059;SDS011;5069;49.306;8.636;2022-09-03T08:02:07;3.70;;;2.50;;
10059;SDS011;5069;49.306;8.636;2022-09-03T08:05:09;3.37;;;2.37;;
10059;SDS011;5069;49.306;8.636;2022-09-03T08:08:10;5.90;;;2.47;;
10059;SDS011;5069;49.306;8.636;2022-09-03T08:11:17;3.10;;;2.07;;
10059;SDS011;5069;49.306;8.636;2022-09-03T08:14:22;3.17;;;2.10;;
10059;SDS011;5069;49.306;8.636;2022-09-03T08:17:23;4.10;;;2.80;;
10059;SDS011;5069;49.306;8.636;2022-09-03T08:20:25;3.90;;;2.70;;
10059;SDS011;5069;49.306;8.636;2022-09-03T08:23:27;5.53;;;2.27;;
10059;SDS011;5069;49.306;8.636;2022-09-03T08:26:29;3.70;;;2.07;;
10059;SDS011;5069;49.306;8.636;2022-09-03T08:29:33;4.00;;;2.47;;
10059;SDS011;5069;49.306;8.636;2022-09-03T08:32:35;2.53;;;2.33;;
10059;SDS011;5069;49.306;8.636;2022-09-03T08:35:36;4.03;;;2.40;;
10059;SDS011;5069;49.306;8.636;2022-09-03T08:38:38;3.83;;;2.50;;
10059;SDS011;5069;49.306;8.636;2022-09-03T08:44:52;3.67;;;2.60;;
10059;SDS011;5069;49.306;8.636;2022-09-03T08:48:02;3.97;;;2.60;;
10059;SDS011;5069;49.306;8.636;2022-09-03T08:51:08;3.60;;;2.40;;
10059;SDS011;5069;49.306;8.636;2022-09-03T08:54:12;4.27;;;2.67;;
10059;SDS011;5069;49.306;8.636;2022-09-03T08:57:14;3.10;;;2.80;;
10059;SDS011;5069;49.306;8.636;2022-09-03T09:00:20;5.50;;;2.70;;
10059;SDS011;5069;49.306;8.636;2022-09-03T09:03:26;4.83;;;2.50;;
10059;SDS011;5069;49.306;8.636;2022-09-03T09:10:13;4.43;;;2.70;;
10059;SDS011;5069;49.306;8.636;2022-09-03T09:13:27;6.70;;;2.80;;
10059;SDS011;5069;49.306;8.636;2022-09-03T09:16:42;4.50;;;3.07;;
10059;SDS011;5069;49.306;8.636;2022-09-03T09:26:20;3.93;;;2.50;;
10059;SDS011;5069;49.306;8.636;2022-09-03T09:29:22;4.07;;;2.90;;
10059;SDS011;5069;49.306;8.636;2022-09-03T09:32:27;3.13;;;2.60;;
10059;SDS011;5069;49.306;8.636;2022-09-03T09:35:28;4.70;;;2.30;;
10059;SDS011;5069;49.306;8.636;2022-09-03T09:38:35;2.90;;;2.60;;
10059;SDS011;5069;49.306;8.636;2022-09-03T09:41:37;4.83;;;2.90;;
10059;SDS011;5069;49.306;8.636;2022-09-03T09:44:40;3.77;;;2.87;;
10059;SDS011;5069;49.306;8.636;2022-09-03T09:47:42;3.83;;;2.90;;
10059;SDS011;5069;49.306;8.636;2022-09-03T09:50:44;3.60;;;2.90;;
10059;SDS011;5069;49.306;8.636;2022-09-03T09:53:46;6.43;;;3.20;;
10059;SDS011;5069;49.306;8.636;2022-09-03T09:56:57;3.73;;;2.67;;
10059;SDS011;5069;49.306;8.636;2022-09-03T10:00:04;3.60;;;2.60;;
10059;SDS011;5069;49.306;8.636;2022-09-03T10:03:12;4.30;;;2.90;;
10059;SDS011;5069;49.306;8.636;2022-09-03T10:06:14;4.17;;;3.10;;
10059;SDS011;5069;49.306;8.636;2022-09-03T10:09:35;4.30;;;2.67;;
10059;SDS011;5069;49.306;8.636;2022-09-03T10:12:40;5.43;;;3.20;;
10059;SDS011;5069;49.306;8.636;2022-09-03T10:15:47;3.93;;;3.53;;
10059;SDS011;5069;49.306;8.636;2022-09-03T10:19:08;4.47;;;2.90;;
10059;SDS011;5069;49.306;8.636;2022-09-03T10:22:24;3.80;;;2.70;;
10059;SDS011;5069;49.306;8.636;2022-09-03T10:25:39;3.13;;;2.80;;
10059;SDS011;5069;49.306;8.636;2022-09-03T10:28:50;5.63;;;2.97;;
10059;SDS011;5069;49.306;8.636;2022-09-03T10:38:33;3.13;;;2.60;;
10059;SDS011;5069;49.306;8.636;2022-09-03T10:51:35;3.63;;;3.00;;
10059;SDS011;5069;49.306;8.636;2022-09-03T10:54:52;4.17;;;2.93;;
10059;SDS011;5069;49.306;8.636;2022-09-03T11:01:39;3.43;;;3.13;;
10059;SDS011;5069;49.306;8.636;2022-09-03T11:08:17;3.00;;;2.70;;
10059;SDS011;5069;49.306;8.636;2022-09-03T11:11:31;3.07;;;2.47;;
10059;SDS011;5069;49.306;8.636;2022-09-03T11:14:41;3.00;;;2.50;;
10059;SDS011;5069;49.306;8.636;2022-09-03T11:17:48;4.10;;;2.97;;
10059;SDS011;5069;49.306;8.636;2022-09-03T11:20:57;2.67;;;2.47;;
10059;SDS011;5069;49.306;8.636;2022-09-03T11:24:15;4.13;;;2.80;;
10059;SDS011;5069;49.306;8.636;2022-09-03T11:27:46;2.53;;;2.33;;
10059;SDS011;5069;49.306;8.636;2022-09-03T11:34:45;2.30;;;2.10;;
10059;SDS011;5069;49.306;8.636;2022-09-03T11:38:01;3.57;;;2.40;;
10059;SDS011;5069;49.306;8.636;2022-09-03T11:41:27;3.10;;;2.23;;
10059;SDS011;5069;49.306;8.636;2022-09-03T11:44:40;2.70;;;2.50;;
10059;SDS011;5069;49.306;8.636;2022-09-03T11:47:52;3.80;;;2.40;;
10059;SDS011;5069;49.306;8.636;2022-09-03T11:50:54;3.57;;;2.30;;
10059;SDS011;5069;49.306;8.636;2022-09-03T11:53:57;2.70;;;2.50;;
10059;SDS011;5069;49.306;8.636;2022-09-03T12:00:16;2.87;;;2.60;;
10059;SDS011;5069;49.306;8.636;2022-09-03T12:03:26;3.40;;;2.20;;
10059;SDS011;5069;49.306;8.636;2022-09-03T12:10:15;2.50;;;2.00;;
10059;SDS011;5069;49.306;8.636;2022-09-03T12:13:27;2.53;;;2.33;;
10059;SDS011;5069;49.306;8.636;2022-09-03T12:16:39;1.90;;;1.80;;
10059;SDS011;5069;49.306;8.636;2022-09-03T12:19:57;1.90;;;1.80;;
10059;SDS011;5069;49.306;8.636;2022-09-03T12:22:59;2.07;;;1.87;;
10059;SDS011;5069;49.306;8.636;2022-09-03T12:26:04;2.87;;;1.80;;
10059;SDS011;5069;49.306;8.636;2022-09-03T12:29:18;4.67;;;2.00;;
10059;SDS011;5069;49.306;8.636;2022-09-03T12:32:32;3.80;;;2.40;;
10059;SDS011;5069;49.306;8.636;2022-09-03T12:35:39;4.00;;;1.90;;
10059;SDS011;5069;49.306;8.636;2022-09-03T12:39:34;2.10;;;2.00;;
10059;SDS011;5069;49.306;8.636;2022-09-03T12:42:49;2.23;;;2.00;;
10059;SDS011;5069;49.306;8.636;2022-09-03T12:45:51;2.20;;;2.00;;
10059;SDS011;5069;49.306;8.636;2022-09-03T12:49:13;2.43;;;2.23;;
10059;SDS011;5069;49.306;8.636;2022-09-03T12:52:35;2.83;;;2.10;;
10059;SDS011;5069;49.306;8.636;2022-09-03T12:55:50;3.33;;;2.10;;
10059;SDS011;5069;49.306;8.636;2022-09-03T12:58:56;2.67;;;2.47;;
10059;SDS011;5069;49.306;8.636;2022-09-03T13:02:03;2.50;;;2.30;;
10059;SDS011;5069;49.306;8.636;2022-09-03T13:05:19;2.87;;;2.40;;
10059;SDS011;5069;49.306;8.636;2022-09-03T13:08:26;2.53;;;2.33;;
10059;SDS011;5069;49.306;8.636;2022-09-03T13:11:33;3.77;;;2.47;;
10059;SDS011;5069;49.306;8.636;2022-09-03T13:14:41;5.67;;;2.63;;
10059;SDS011;5069;49.306;8.636;2022-09-03T13:17:56;2.60;;;2.40;;
10059;SDS011;5069;49.306;8.636;2022-09-03T13:21:11;7.60;;;2.90;;
10059;SDS011;5069;49.306;8.636;2022-09-03T13:31:02;3.10;;;2.80;;
10059;SDS011;5069;49.306;8.636;2022-09-03T13:34:19;4.00;;;2.80;;
10059;SDS011;5069;49.306;8.636;2022-09-03T13:37:32;4.23;;;3.00;;
10059;SDS011;5069;49.306;8.636;2022-09-03T13:40:47;3.40;;;3.00;;
10059;SDS011;5069;49.306;8.636;2022-09-03T13:44:08;3.00;;;2.70;;
10059;SDS011;5069;49.306;8.636;2022-09-03T13:50:41;3.43;;;3.10;;
10059;SDS011;5069;49.306;8.636;2022-09-03T13:53:53;3.27;;;2.80;;
10059;SDS011;5069;49.306;8.636;2022-09-03T13:57:54;3.73;;;3.20;;
10059;SDS011;5069;49.306;8.636;2022-09-03T14:01:09;4.10;;;3.10;;
10059;SDS011;5069;49.306;8.636;2022-09-03T14:04:33;3.10;;;2.90;;
10059;SDS011;5069;49.306;8.636;2022-09-03T14:14:30;3.73;;;3.30;;
10059;SDS011;5069;49.306;8.636;2022-09-03T14:17:51;4.43;;;3.00;;
10059;SDS011;5069;49.306;8.636;2022-09-03T14:21:03;4.20;;;2.80;;
10059;SDS011;5069;49.306;8.636;2022-09-03T14:28:41;5.13;;;3.10;;
10059;SDS011;5069;49.306;8.636;2022-09-03T14:31:46;4.47;;;3.33;;
10059;SDS011;5069;49.306;8.636;2022-09-03T14:35:10;3.53;;;3.23;;
10059;SDS011;5069;49.306;8.636;2022-09-03T14:41:56;3.63;;;3.27;;
10059;SDS011;5069;49.306;8.636;2022-09-03T14:45:26;5.17;;;3.13;;
10059;SDS011;5069;49.306;8.636;2022-09-03T15:12:17;4.47;;;4.07;;
10059;SDS011;5069;49.306;8.636;2022-09-03T15:15:29;4.93;;;4.43;;
10059;SDS011;5069;49.306;8.636;2022-09-03T15:21:56;5.33;;;4.60;;
10059;SDS011;5069;49.306;8.636;2022-09-03T15:25:47;4.77;;;4.37;;
10059;SDS011;5069;49.306;8.636;2022-09-03T15:39:27;4.47;;;3.70;;
10059;SDS011;5069;49.306;8.636;2022-09-03T15:42:35;5.60;;;3.77;;
10059;SDS011;5069;49.306;8.636;2022-09-03T15:48:55;3.70;;;3.40;;
10059;SDS011;5069;49.306;8.636;2022-09-03T15:59:02;5.10;;;3.90;;
10059;SDS011;5069;49.306;8.636;2022-09-03T16:05:41;4.30;;;3.90;;
10059;SDS011;5069;49.306;8.636;2022-09-03T16:08:49;4.93;;;3.87;;
10059;SDS011;5069;49.306;8.636;2022-09-03T16:11:58;4.17;;;3.80;;
10059;SDS011;5069;49.306;8.636;2022-09-03T16:15:14;4.27;;;3.97;;
10059;SDS011;5069;49.306;8.636;2022-09-03T16:18:24;3.20;;;2.90;;
10059;SDS011;5069;49.306;8.636;2022-09-03T16:25:00;4.37;;;3.23;;
10059;SDS011;5069;49.306;8.636;2022-09-03T16:28:12;3.13;;;2.87;;
10059;SDS011;5069;49.306;8.636;2022-09-03T16:31:24;4.07;;;2.47;;
10059;SDS011;5069;49.306;8.636;2022-09-03T16:35:00;2.53;;;2.23;;
10059;SDS011;5069;49.306;8.636;2022-09-03T16:38:21;2.50;;;2.30;;
10059;SDS011;5069;49.306;8.636;2022-09-03T16:41:52;3.07;;;2.40;;
10059;SDS011;5069;49.306;8.636;2022-09-03T16:48:47;3.00;;;2.37;;
10059;SDS011;5069;49.306;8.636;2022-09-03T16:55:21;2.60;;;2.40;;
10059;SDS011;5069;49.306;8.636;2022-09-03T16:58:34;4.97;;;2.70;;
10059;SDS011;5069;49.306;8.636;2022-09-03T17:09:16;3.10;;;2.60;;
10059;SDS011;5069;49.306;8.636;2022-09-03T17:12:49;3.47;;;3.00;;
10059;SDS011;5069;49.306;8.636;2022-09-03T17:44:04;3.70;;;3.40;;
10059;SDS011;5069;49.306;8.636;2022-09-03T17:47:31;3.20;;;3.00;;
10059;SDS011;5069;49.306;8.636;2022-09-03T17:51:11;3.50;;;3.20;;
10059;SDS011;5069;49.306;8.636;2022-09-03T17:54:35;3.00;;;2.80;;
10059;SDS011;5069;49.306;8.636;2022-09-03T17:57:44;2.70;;;2.50;;
10059;SDS011;5069;49.306;8.636;2022-09-03T18:04:17;3.50;;;2.63;;
10059;SDS011;5069;49.306;8.636;2022-09-03T18:14:43;3.77;;;3.47;;
10059;SDS011;5069;49.306;8.636;2022-09-03T18:17:58;7.07;;;3.33;;
10059;SDS011;5069;49.306;8.636;2022-09-03T18:21:06;3.03;;;2.67;;
10059;SDS011;5069;49.306;8.636;2022-09-03T18:24:33;2.73;;;2.50;;
10059;SDS011;5069;49.306;8.636;2022-09-03T18:28:02;5.30;;;3.00;;
10059;SDS011;5069;49.306;8.636;2022-09-03T18:31:26;4.40;;;2.90;;
10059;SDS011;5069;49.306;8.636;2022-09-03T18:34:46;3.77;;;3.27;;
10059;SDS011;5069;49.306;8.636;2022-09-03T18:38:06;4.73;;;3.10;;
10059;SDS011;5069;49.306;8.636;2022-09-03T18:41:42;4.30;;;2.80;;
10059;SDS011;5069;49.306;8.636;2022-09-03T18:49:23;3.20;;;2.87;;
10059;SDS011;5069;49.306;8.636;2022-09-03T18:56:48;4.17;;;3.60;;
10059;SDS011;5069;49.306;8.636;2022-09-03T19:00:10;5.03;;;4.47;;
10059;SDS011;5069;49.306;8.636;2022-09-03T19:03:55;3.90;;;3.57;;
10059;SDS011;5069;49.306;8.636;2022-09-03T19:11:20;8.10;;;4.03;;
10059;SDS011;5069;49.306;8.636;2022-09-03T19:14:52;4.07;;;3.67;;
10059;SDS011;5069;49.306;8.636;2022-09-03T19:18:34;6.13;;;3.77;;
10059;SDS011;5069;49.306;8.636;2022-09-03T19:22:34;4.43;;;3.83;;
10059;SDS011;5069;49.306;8.636;2022-09-03T19:25:55;5.13;;;4.13;;
10059;SDS011;5069;49.306;8.636;2022-09-03T19:29:38;5.67;;;4.10;;
10059;SDS011;5069;49.306;8.636;2022-09-03T19:33:30;6.50;;;4.30;;
10059;SDS011;5069;49.306;8.636;2022-09-03T19:37:05;5.90;;;5.10;;
10059;SDS011;5069;49.306;8.636;2022-09-03T19:40:38;4.50;;;4.00;;
10059;SDS011;5069;49.306;8.636;2022-09-03T19:51:33;6.20;;;4.50;;
10059;SDS011;5069;49.306;8.636;2022-09-03T19:55:03;4.80;;;4.30;;
10059;SDS011;5069;49.306;8.636;2022-09-03T19:58:26;5.97;;;5.20;;
10059;SDS011;5069;49.306;8.636;2022-09-03T20:01:49;6.73;;;6.00;;
10059;SDS011;5069;49.306;8.636;2022-09-03T20:05:12;6.60;;;5.50;;
10059;SDS011;5069;49.306;8.636;2022-09-03T20:08:37;5.53;;;5.03;;
10059;SDS011;5069;49.306;8.636;2022-09-03T20:11:57;8.27;;;5.27;;
10059;SDS011;5069;49.306;8.636;2022-09-03T20:15:10;6.20;;;5.10;;
10059;SDS011;5069;49.306;8.636;2022-09-03T20:22:30;6.30;;;4.90;;
10059;SDS011;5069;49.306;8.636;2022-09-03T20:31:59;5.83;;;4.80;;
10059;SDS011;5069;49.306;8.636;2022-09-03T20:42:08;4.90;;;4.17;;
10059;SDS011;5069;49.306;8.636;2022-09-03T20:45:31;5.97;;;4.33;;
10059;SDS011;5069;49.306;8.636;2022-09-03T20:48:49;8.10;;;4.50;;
10059;SDS011;5069;49.306;8.636;2022-09-03T20:52:02;7.73;;;4.77;;
10059;SDS011;5069;49.306;8.636;2022-09-03T21:01:49;7.10;;;4.63;;
10059;SDS011;5069;49.306;8.636;2022-09-03T21:05:24;5.23;;;4.23;;
10059;SDS011;5069;49.306;8.636;2022-09-03T21:08:53;5.10;;;4.20;;
10059;SDS011;5069;49.306;8.636;2022-09-03T21:19:06;7.20;;;3.80;;
10059;SDS011;5069;49.306;8.636;2022-09-03T21:22:26;6.23;;;5.13;;
10059;SDS011;5069;49.306;8.636;2022-09-03T21:25:47;4.43;;;4.03;;
10059;SDS011;5069;49.306;8.636;2022-09-03T21:29:05;6.73;;;4.43;;
10059;SDS011;5069;49.306;8.636;2022-09-03T21:32:16;4.70;;;3.83;;
10059;SDS011;5069;49.306;8.636;2022-09-03T21:38:48;4.83;;;3.53;;
10059;SDS011;5069;49.306;8.636;2022-09-03T21:45:29;4.20;;;3.67;;
10059;SDS011;5069;49.306;8.636;2022-09-03T21:54:58;4.87;;;3.70;;
10059;SDS011;5069;49.306;8.636;2022-09-03T21:58:06;4.43;;;3.60;;
10059;SDS011;5069;49.306;8.636;2022-09-03T22:01:19;4.27;;;3.83;;
10059;SDS011;5069;49.306;8.636;2022-09-03T22:04:30;4.83;;;4.20;;
10059;SDS011;5069;49.306;8.636;2022-09-03T22:07:41;6.57;;;4.77;;
10059;SDS011;5069;49.306;8.636;2022-09-03T22:14:14;6.43;;;4.53;;
10059;SDS011;5069;49.306;8.636;2022-09-03T22:17:34;5.00;;;4.50;;
10059;SDS011;5069;49.306;8.636;2022-09-03T22:20:46;6.87;;;4.80;;
10059;SDS011;5069;49.306;8.636;2022-09-03T22:23:56;5.13;;;4.07;;
10059;SDS011;5069;49.306;8.636;2022-09-03T22:27:08;6.27;;;4.27;;
10059;SDS011;5069;49.306;8.636;2022-09-03T22:30:19;4.77;;;4.00;;
10059;SDS011;5069;49.306;8.636;2022-09-03T22:36:39;5.97;;;4.43;;
10059;SDS011;5069;49.306;8.636;2022-09-03T22:39:47;5.57;;;4.43;;
10059;SDS011;5069;49.306;8.636;2022-09-03T22:42:52;4.10;;;3.70;;
10059;SDS011;5069;49.306;8.636;2022-09-03T22:49:24;6.77;;;4.57;;
10059;SDS011;5069;49.306;8.636;2022-09-03T22:52:39;5.10;;;4.60;;
10059;SDS011;5069;49.306;8.636;2022-09-03T22:56:06;7.10;;;4.83;;
10059;SDS011;5069;49.306;8.636;2022-09-03T22:59:14;5.80;;;4.50;;
10059;SDS011;5069;49.306;8.636;2022-09-03T23:02:20;6.03;;;4.20;;
10059;SDS011;5069;49.306;8.636;2022-09-03T23:08:58;7.47;;;5.03;;
10059;SDS011;5069;49.306;8.636;2022-09-03T23:12:09;5.17;;;3.97;;
10059;SDS011;5069;49.306;8.636;2022-09-03T23:15:18;5.97;;;5.00;;
10059;SDS011;5069;49.306;8.636;2022-09-03T23:18:31;6.43;;;4.70;;
10059;SDS011;5069;49.306;8.636;2022-09-03T23:21:37;5.57;;;4.63;;
10059;SDS011;5069;49.306;8.636;2022-09-03T23:24:46;5.20;;;4.60;;
10059;SDS011;5069;49.306;8.636;2022-09-03T23:27:56;5.97;;;4.87;;
10059;SDS011;5069;49.306;8.636;2022-09-03T23:31:18;7.90;;;4.93;;
10059;SDS011;5069;49.306;8.636;2022-09-03T23:34:25;8.00;;;4.80;;
10059;SDS011;5069;49.306;8.636;2022-09-03T23:40:50;4.73;;;4.30;;
10059;SDS011;5069;49.306;8.636;2022-09-03T23:44:06;4.63;;;4.17;;
10059;SDS011;5069;49.306;8.636;2022-09-03T23:47:42;5.50;;;4.43;;
10059;SDS011;5069;49.306;8.636;2022-09-03T23:51:12;7.03;;;4.93;;
10059;SDS011;5069;49.306;8.636;2022-09-03T23:54:47;4.77;;;4.33;;
